Time;durP1;ratioP1;P1;durP2;ratioP2;P2;SDS_P1;SDS_P2;PMS_P1;PMS_P2;Temp;Humidity;BMP_temperature;BMP_pressure;BME280_temperature;BME280_humidity;BME280_pressure;Samples;Min_cycle;Max_cycle;Signal;HPM_P1;HPM_P2
2024/03/17 00:00:50;;;;;;;7.17;6.17;;;;;;;6.24;76.57;96804.31;5106395;28;20212;-80
2024/03/17 00:03:16;;;;;;;7.53;5.67;;;;;;;6.16;76.92;96807.38;5092962;28;20203;-80
2024/03/17 00:05:44;;;;;;;6.27;5.53;;;;;;;6.26;77.12;96813.56;5092604;28;20567;-80
2024/03/17 00:08:10;;;;;;;6.23;5.63;;;;;;;6.37;76.12;96796.72;5098007;28;20195;-80
2024/03/17 00:10:36;;;;;;;6.43;5.67;;;;;;;6.32;75.91;96793.28;5112308;28;20227;-80
2024/03/17 00:13:02;;;;;;;7.87;6.83;;;;;;;6.21;76.54;96799.53;5112710;28;20196;-80
2024/03/17 00:15:29;;;;;;;7.67;6.87;;;;;;;6.18;76.98;96806.09;5112939;28;20191;-80
2024/03/17 00:17:55;;;;;;;8.60;6.60;;;;;;;5.82;77.83;96802.31;5112357;28;20195;-79
2024/03/17 00:20:22;;;;;;;7.33;6.10;;;;;;;6.01;76.93;96776.38;5110995;28;20201;-80
2024/03/17 00:22:51;;;;;;;6.90;6.20;;;;;;;6.00;77.15;96804.66;5095159;28;20196;-80
2024/03/17 00:25:18;;;;;;;6.53;5.83;;;;;;;6.07;77.30;96799.13;5110398;28;20615;-80
2024/03/17 00:27:44;;;;;;;7.43;6.13;;;;;;;6.37;75.25;96788.81;5112289;28;20654;-79
2024/03/17 00:30:13;;;;;;;7.87;5.90;;;;;;;6.16;76.52;96775.69;5102174;28;20216;-80
2024/03/17 00:32:39;;;;;;;7.10;6.30;;;;;;;6.22;76.82;96795.81;5112122;28;20191;-80
2024/03/17 00:35:07;;;;;;;9.13;6.00;;;;;;;6.29;76.17;96788.47;5112111;28;20657;-80
2024/03/17 00:37:33;;;;;;;7.43;6.73;;;;;;;5.71;77.08;96719.56;5112584;28;20203;-79
2024/03/17 00:40:02;;;;;;;6.10;5.50;;;;;;;6.19;77.33;96794.47;5112377;28;20215;-79
2024/03/17 00:42:28;;;;;;;8.37;6.50;;;;;;;6.10;76.33;96780.13;5112542;28;20282;-80
2024/03/17 00:44:55;;;;;;;8.33;6.23;;;;;;;5.85;77.79;96791.28;5112070;28;20257;-80
2024/03/17 00:47:21;;;;;;;6.67;5.90;;;;;;;5.75;78.33;96794.59;5111964;28;20278;-80
2024/03/17 00:49:49;;;;;;;7.60;6.30;;;;;;;5.80;78.40;96784.06;5112846;28;20314;-80
2024/03/17 00:52:15;;;;;;;6.80;5.70;;;;;;;5.98;77.53;96784.81;5116520;28;20195;-80
2024/03/17 00:54:42;;;;;;;6.67;5.43;;;;;;;5.93;78.09;96782.91;5116890;28;20214;-80
2024/03/17 00:57:09;;;;;;;6.97;6.27;;;;;;;6.09;77.63;96787.28;5114963;27;20195;-80
2024/03/17 00:59:36;;;;;;;7.30;6.60;;;;;;;6.12;76.80;96789.41;5116835;27;20231;-80
2024/03/17 01:02:02;;;;;;;9.77;7.23;;;;;;;6.01;76.94;96792.22;5116123;28;20256;-80
2024/03/17 01:04:29;;;;;;;9.13;7.43;;;;;;;5.89;78.08;96787.06;5116384;28;20195;-80
2024/03/17 01:06:55;;;;;;;9.43;8.10;;;;;;;5.71;78.26;96784.78;5116122;28;20254;-80
2024/03/17 01:09:21;;;;;;;7.73;6.80;;;;;;;5.90;78.22;96770.16;5115885;28;20631;-80
2024/03/17 01:11:47;;;;;;;9.00;6.87;;;;;;;6.27;76.17;96772.06;5116344;28;20199;-80
2024/03/17 01:14:16;;;;;;;8.13;7.20;;;;;;;6.27;76.91;96774.72;5114955;28;20195;-80
2024/03/17 01:16:41;;;;;;;9.60;6.30;;;;;;;6.20;77.17;96774.94;5115860;28;20196;-80
2024/03/17 01:19:08;;;;;;;6.23;5.63;;;;;;;5.97;77.34;96762.88;5101266;28;20199;-80
2024/03/17 01:21:34;;;;;;;8.97;6.50;;;;;;;5.78;78.20;96777.47;5095295;28;20200;-80
2024/03/17 01:24:01;;;;;;;7.47;6.77;;;;;;;5.76;78.80;96776.91;5096110;28;20256;-80
2024/03/17 01:26:27;;;;;;;7.53;5.67;;;;;;;5.68;78.85;96774.72;5095779;28;20265;-80
2024/03/17 01:28:53;;;;;;;9.60;6.43;;;;;;;5.67;79.21;96773.94;5094198;28;20647;-79
2024/03/17 01:31:21;;;;;;;6.43;5.80;;;;;;;5.74;76.87;96729.63;5095631;28;20224;-79
2024/03/17 01:33:47;;;;;;;7.77;5.93;;;;;;;5.95;77.33;96764.16;5099500;28;20217;-80
2024/03/17 01:36:13;;;;;;;7.60;6.20;;;;;;;5.80;78.23;96765.59;5105999;28;20203;-79
2024/03/17 01:38:40;;;;;;;10.90;6.43;;;;;;;5.68;79.06;96772.06;5094949;28;20188;-80
2024/03/17 01:41:07;;;;;;;7.27;6.37;;;;;;;5.53;79.38;96772.72;5095553;28;20616;-80
2024/03/17 01:43:33;;;;;;;8.00;6.43;;;;;;;5.68;79.12;96774.72;5093611;28;20204;-80
2024/03/17 01:46:01;;;;;;;5.87;5.27;;;;;;;5.84;78.71;96764.03;5115483;28;20203;-80
2024/03/17 01:48:28;;;;;;;7.03;6.33;;;;;;;5.76;78.92;96753.94;5114083;28;20200;-80
2024/03/17 01:50:57;;;;;;;7.93;6.53;;;;;;;5.84;79.04;96771.97;5115346;28;20804;-80
2024/03/17 01:53:25;;;;;;;6.83;6.13;;;;;;;5.81;79.42;96766.41;5115217;28;20235;-79
2024/03/17 01:55:54;;;;;;;7.03;6.07;;;;;;;5.74;79.51;96763.16;5115067;28;20199;-79
2024/03/17 01:58:24;;;;;;;7.50;6.17;;;;;;;5.78;79.18;96762.41;5114894;28;20195;-80
2024/03/17 02:00:51;;;;;;;7.60;6.80;;;;;;;5.77;78.96;96767.94;5129540;27;20260;-80
2024/03/17 02:03:18;;;;;;;10.93;6.60;;;;;;;5.77;78.92;96773.22;5136239;27;20226;-79
2024/03/17 02:05:47;;;;;;;7.63;5.70;;;;;;;5.63;77.71;96775.47;5135718;27;20199;-80
2024/03/17 02:08:13;;;;;;;8.70;6.60;;;;;;;5.61;77.90;96759.06;5135833;27;20205;-80
2024/03/17 02:10:40;;;;;;;9.00;6.83;;;;;;;5.43;78.38;96725.13;5135562;27;20278;-80
2024/03/17 02:13:06;;;;;;;9.27;6.90;;;;;;;5.50;79.01;96746.81;5133788;27;20190;-80
2024/03/17 02:15:33;;;;;;;6.90;6.20;;;;;;;5.74;78.30;96763.16;5135808;27;20201;-80
2024/03/17 02:17:59;;;;;;;8.43;6.67;;;;;;;5.80;78.11;96767.44;5128214;27;20198;-80
2024/03/17 02:20:55;;;;;;;14.97;10.13;;;;;;;5.72;77.90;96770.53;5134567;27;20199;-81
2024/03/17 02:23:13;;;;;;;14.23;10.70;;;;;;;5.43;78.41;96764.72;5114844;27;20187;-80
2024/03/17 02:25:40;;;;;;;17.43;13.10;;;;;;;5.40;78.67;96761.50;5114676;28;20611;-80
2024/03/17 02:28:06;;;;;;;10.13;8.97;;;;;;;5.30;79.43;96764.03;5114650;28;20201;-80
2024/03/17 02:30:33;;;;;;;10.27;8.27;;;;;;;5.36;79.63;96756.97;5114197;28;20764;-80
2024/03/17 02:32:58;;;;;;;11.70;8.03;;;;;;;5.17;80.16;96755.72;5114801;28;20192;-80
2024/03/17 02:35:26;;;;;;;10.57;9.47;;;;;;;5.20;80.38;96768.44;5114839;28;20666;-80
2024/03/17 02:37:52;;;;;;;9.90;8.90;;;;;;;5.25;80.53;96771.13;5114311;28;20191;-79
2024/03/17 02:40:20;;;;;;;10.60;9.00;;;;;;;5.35;80.79;96758.84;5114244;28;20561;-79
2024/03/17 02:42:47;;;;;;;10.53;9.27;;;;;;;5.46;79.81;96767.66;5114347;28;20675;-80
2024/03/17 02:45:14;;;;;;;13.40;12.03;;;;;;;5.31;79.52;96757.72;5113401;28;20196;-80
2024/03/17 02:47:41;;;;;;;8.63;7.73;;;;;;;5.43;79.15;96762.88;5113663;28;20198;-79
2024/03/17 02:50:09;;;;;;;9.13;8.10;;;;;;;5.22;78.87;96738.09;5113182;28;20300;-80
2024/03/17 02:52:36;;;;;;;10.13;6.97;;;;;;;5.49;79.83;96758.44;5114943;28;20286;-80
2024/03/17 02:55:03;;;;;;;18.97;8.43;;;;;;;5.66;79.07;96747.78;5114108;28;20719;-80
2024/03/17 02:57:32;;;;;;;29.37;9.73;;;;;;;5.72;78.98;96749.41;5113793;28;20191;-79
2024/03/17 02:59:58;;;;;;;11.37;7.27;;;;;;;5.55;79.37;96760.09;5113621;28;20280;-80
2024/03/17 03:02:25;;;;;;;7.23;6.50;;;;;;;5.50;80.16;96762.66;5114021;28;20256;-80
2024/03/17 03:04:52;;;;;;;8.80;7.77;;;;;;;5.48;79.42;96762.13;5112332;28;20195;-80
2024/03/17 03:07:19;;;;;;;11.10;8.63;;;;;;;5.56;80.34;96757.19;5113835;28;20191;-80
2024/03/17 03:09:47;;;;;;;10.50;8.43;;;;;;;5.63;79.07;96763.06;5113435;28;20227;-80
2024/03/17 03:12:13;;;;;;;8.37;7.47;;;;;;;5.63;79.05;96763.06;5094040;28;20192;-80
2024/03/17 03:14:42;;;;;;;8.67;7.13;;;;;;;5.64;78.77;96766.50;5093071;28;20261;-80
2024/03/17 03:17:09;;;;;;;8.77;7.57;;;;;;;5.53;79.73;96762.16;5093024;28;20196;-80
2024/03/17 03:19:36;;;;;;;7.67;6.90;;;;;;;5.47;79.94;96761.31;5100771;28;20192;-80
2024/03/17 03:22:03;;;;;;;8.87;7.17;;;;;;;5.67;79.04;96768.66;5113040;28;20208;-80
2024/03/17 03:24:30;;;;;;;9.93;7.40;;;;;;;5.52;80.29;96768.50;5103574;28;20213;-80
2024/03/17 03:26:56;;;;;;;8.23;6.73;;;;;;;5.42;80.53;96769.19;5113172;28;20662;-80
2024/03/17 03:29:23;;;;;;;11.17;7.77;;;;;;;5.34;80.87;96770.44;5111831;28;20213;-80
2024/03/17 03:31:51;;;;;;;7.10;6.40;;;;;;;5.40;80.76;96769.44;5113210;28;20310;-80
2024/03/17 03:34:17;;;;;;;8.67;7.80;;;;;;;5.32;81.04;96775.16;5111911;28;20191;-80
2024/03/17 03:36:44;;;;;;;8.80;7.50;;;;;;;5.37;80.83;96769.13;5113039;28;20681;-79
2024/03/17 03:39:13;;;;;;;10.90;8.10;;;;;;;5.30;81.09;96771.16;5113717;28;20606;-79
2024/03/17 03:41:46;;;;;;;9.23;8.27;;;;;;;5.44;80.94;96776.84;5113010;28;20202;-79
2024/03/17 03:44:13;;;;;;;10.20;7.70;;;;;;;5.35;80.71;96768.59;5114079;28;20195;-80
2024/03/17 03:46:40;;;;;;;7.97;7.17;;;;;;;5.40;80.88;96769.44;5112966;28;20260;-80
2024/03/17 03:49:08;;;;;;;10.20;8.03;;;;;;;5.42;79.83;96777.13;5112588;28;20585;-80
2024/03/17 03:51:35;;;;;;;10.10;8.23;;;;;;;5.39;80.44;96769.69;5113084;28;20279;-80
2024/03/17 03:54:02;;;;;;;11.27;9.10;;;;;;;5.52;79.81;96773.78;5112876;28;20192;-80
2024/03/17 03:56:29;;;;;;;12.87;9.77;;;;;;;5.48;79.76;96773.47;5113362;28;20188;-80
2024/03/17 03:58:56;;;;;;;11.20;9.33;;;;;;;4.98;79.78;96713.81;5111142;28;20200;-80
2024/03/17 04:01:22;;;;;;;10.23;9.20;;;;;;;5.32;80.70;96784.91;5131920;27;20222;-80
2024/03/17 04:03:49;;;;;;;11.10;9.93;;;;;;;5.25;80.81;96779.03;5133817;27;20194;-79
2024/03/17 04:06:17;;;;;;;10.83;8.77;;;;;;;5.07;81.46;96766.94;5129935;27;20234;-80
2024/03/17 04:08:44;;;;;;;23.67;16.13;;;;;;;5.37;80.19;96777.84;5111898;28;20195;-80
2024/03/17 04:11:11;;;;;;;18.97;14.40;;;;;;;5.37;79.29;96771.78;5111937;28;20309;-80
2024/03/17 04:13:38;;;;;;;17.70;12.73;;;;;;;5.22;80.69;96756.56;5113086;28;20618;-80
2024/03/17 04:16:06;;;;;;;34.93;23.40;;;;;;;5.32;80.46;96779.63;5111695;28;20249;-80
2024/03/17 04:18:34;;;;;;;22.93;16.10;;;;;;;5.45;80.03;96771.31;5110829;28;20745;-80
2024/03/17 04:21:03;;;;;;;11.67;9.27;;;;;;;5.36;80.44;96778.09;5112409;28;20233;-80
2024/03/17 04:23:32;;;;;;;9.97;8.50;;;;;;;5.32;80.41;96750.59;5113262;28;20253;-80
2024/03/17 04:26:00;;;;;;;11.27;9.13;;;;;;;5.38;80.52;96787.38;5112506;28;20195;-80
2024/03/17 04:28:29;;;;;;;11.37;9.57;;;;;;;5.35;81.02;96787.88;5112428;28;20244;-80
2024/03/17 04:31:04;;;;;;;11.90;9.40;;;;;;;5.59;80.41;96798.13;5119678;27;20253;-80
2024/03/17 04:33:31;;;;;;;11.37;9.13;;;;;;;5.70;79.37;96789.28;5133356;27;20194;-80
2024/03/17 04:35:58;;;;;;;11.50;9.43;;;;;;;5.63;80.13;96789.47;5133232;27;20190;-79
2024/03/17 04:38:25;;;;;;;11.87;8.67;;;;;;;5.60;80.28;96797.09;5132602;27;20198;-79
2024/03/17 04:40:59;;;;;;;11.97;9.43;;;;;;;5.57;80.93;96802.84;5133161;27;20195;-79
2024/03/17 04:43:25;;;;;;;12.60;8.43;;;;;;;5.63;80.00;96800.03;5132963;27;20613;-79
2024/03/17 04:46:01;;;;;;;9.70;8.60;;;;;;;5.39;80.31;96778.41;5132336;28;20195;-79
2024/03/17 04:48:28;;;;;;;11.73;8.77;;;;;;;5.60;81.30;96807.66;5132508;28;20233;-79
2024/03/17 04:50:55;;;;;;;12.70;8.73;;;;;;;5.64;81.40;96804.25;5132248;28;20210;-80
2024/03/17 04:53:21;;;;;;;11.40;9.47;;;;;;;5.84;79.96;96808.13;5131577;28;20684;-80
2024/03/17 04:55:48;;;;;;;14.20;11.67;;;;;;;5.75;79.95;96796.44;5132955;28;20195;-80
2024/03/17 04:58:16;;;;;;;12.20;10.90;;;;;;;5.72;80.04;96807.50;5132907;28;20194;-80
2024/03/17 05:00:43;;;;;;;17.93;13.50;;;;;;;5.71;80.69;96811.19;5131607;28;20282;-80
2024/03/17 05:03:10;;;;;;;14.83;10.93;;;;;;;5.70;80.13;96817.53;5132679;28;20195;-80
2024/03/17 05:05:36;;;;;;;13.33;11.37;;;;;;;5.55;80.43;96803.13;5132619;28;20270;-80
2024/03/17 05:08:03;;;;;;;15.80;11.77;;;;;;;5.67;80.41;96816.19;5132982;28;20255;-80
2024/03/17 05:10:30;;;;;;;31.80;25.00;;;;;;;5.78;80.86;96819.72;5118881;28;20223;-78
2024/03/17 05:12:57;;;;;;;34.37;26.80;;;;;;;5.72;81.42;96818.84;5112084;28;20195;-79
2024/03/17 05:15:25;;;;;;;19.13;17.00;;;;;;;5.78;81.60;96815.22;5111935;28;20268;-80
2024/03/17 05:17:52;;;;;;;15.50;12.30;;;;;;;5.63;81.78;96820.34;5111657;28;20665;-80
2024/03/17 05:20:19;;;;;;;35.90;28.53;;;;;;;5.70;81.40;96820.97;5126532;28;20649;-77
2024/03/17 05:22:47;;;;;;;21.00;17.53;;;;;;;5.76;80.90;96817.31;5132143;28;20195;-77
2024/03/17 05:25:14;;;;;;;26.07;19.40;;;;;;;5.57;81.09;96798.38;5132118;28;20602;-77
2024/03/17 05:27:41;;;;;;;21.47;16.70;;;;;;;5.71;81.54;96824.41;5113455;28;20199;-77
2024/03/17 05:30:09;;;;;;;15.63;14.03;;;;;;;5.74;81.14;96829.19;5111550;28;20195;-77
2024/03/17 05:32:38;;;;;;;15.43;13.47;;;;;;;5.66;81.57;96832.28;5111579;28;20286;-78
2024/03/17 05:35:05;;;;;;;16.23;12.40;;;;;;;5.81;80.99;96832.44;5129826;27;20191;-78
2024/03/17 05:37:32;;;;;;;15.23;13.10;;;;;;;5.57;81.54;96779.88;5130279;27;20608;-78
2024/03/17 05:39:59;;;;;;;18.27;13.93;;;;;;;5.98;80.69;96848.22;5115498;28;20199;-77
2024/03/17 05:42:26;;;;;;;14.03;11.77;;;;;;;5.99;80.80;96837.38;5125266;27;20190;-77
2024/03/17 05:44:53;;;;;;;14.83;11.53;;;;;;;6.21;80.51;96839.97;5135051;27;20199;-81
2024/03/17 05:47:20;;;;;;;12.80;10.90;;;;;;;6.16;79.70;96839.94;5136230;27;20194;-81
2024/03/17 05:49:48;;;;;;;15.13;10.00;;;;;;;6.19;80.24;96836.75;5136068;27;20271;-81
2024/03/17 05:52:14;;;;;;;12.67;10.53;;;;;;;6.31;80.07;96837.41;5135810;27;20215;-81
2024/03/17 05:54:41;;;;;;;13.40;10.07;;;;;;;6.29;79.51;96852.72;5133836;27;20545;-81
2024/03/17 05:57:09;;;;;;;12.43;10.53;;;;;;;6.26;79.44;96847.13;5135498;27;20199;-81
2024/03/17 05:59:36;;;;;;;13.07;10.33;;;;;;;6.35;79.70;96849.06;5136849;27;20258;-79
2024/03/17 06:02:03;;;;;;;13.50;10.70;;;;;;;6.34;79.52;96849.31;5134293;27;20356;-80
2024/03/17 06:04:29;;;;;;;16.13;11.90;;;;;;;6.21;80.01;96850.53;5136102;27;20191;-80
2024/03/17 06:06:58;;;;;;;17.00;11.77;;;;;;;6.30;80.22;96848.22;5134406;27;20198;-80
2024/03/17 06:09:24;;;;;;;12.27;9.97;;;;;;;6.31;80.67;96853.28;5135369;27;20195;-80
2024/03/17 06:11:52;;;;;;;13.93;10.60;;;;;;;6.37;80.44;96854.91;5133956;27;20584;-80
2024/03/17 06:14:18;;;;;;;15.00;12.00;;;;;;;6.43;80.58;96852.28;5135543;27;20207;-80
2024/03/17 06:16:46;;;;;;;13.93;10.87;;;;;;;6.57;79.99;96856.91;5135460;27;20199;-80
2024/03/17 06:19:14;;;;;;;16.97;10.97;;;;;;;6.62;79.41;96858.78;5136242;27;20187;-79
2024/03/17 06:21:44;;;;;;;14.00;11.03;;;;;;;6.66;79.33;96857.25;5135375;27;20285;-80
2024/03/17 06:24:12;;;;;;;15.50;11.63;;;;;;;6.79;79.51;96856.78;5133891;27;20653;-80
2024/03/17 06:26:39;;;;;;;17.40;12.47;;;;;;;6.73;79.03;96857.78;5135074;27;20207;-80
2024/03/17 06:29:05;;;;;;;15.23;11.70;;;;;;;6.90;79.03;96859.50;5134982;27;20199;-80
2024/03/17 06:31:32;;;;;;;14.33;10.47;;;;;;;7.07;79.23;96860.91;5135497;27;20222;-80
2024/03/17 06:33:59;;;;;;;14.63;11.23;;;;;;;7.05;78.65;96863.03;5115835;27;20244;-80
2024/03/17 06:36:26;;;;;;;16.03;13.13;;;;;;;7.21;77.88;96868.41;5135233;27;20224;-80
2024/03/17 06:38:53;;;;;;;16.90;12.37;;;;;;;7.22;78.33;96862.06;5134826;27;20661;-80
2024/03/17 06:41:21;;;;;;;16.53;12.93;;;;;;;7.24;77.67;96857.28;5133490;27;20198;-80
2024/03/17 06:43:49;;;;;;;16.37;13.13;;;;;;;7.58;76.95;96866.44;5134952;27;20207;-80
2024/03/17 06:46:16;;;;;;;15.97;11.63;;;;;;;7.79;76.42;96862.03;5133206;27;20206;-79
2024/03/17 06:48:43;;;;;;;15.80;11.90;;;;;;;7.97;75.77;96867.88;5133628;27;20195;-79
2024/03/17 06:51:09;;;;;;;14.67;10.90;;;;;;;7.73;75.88;96867.56;5134370;27;20567;-80
2024/03/17 06:53:36;;;;;;;15.27;12.27;;;;;;;7.80;76.45;96871.56;5134921;27;20190;-79
2024/03/17 06:56:03;;;;;;;14.23;11.83;;;;;;;7.86;75.42;96875.03;5132872;27;20657;-80
2024/03/17 06:58:31;;;;;;;15.40;11.93;;;;;;;7.98;74.98;96872.16;5134040;27;20768;-80
2024/03/17 07:00:59;;;;;;;12.47;10.13;;;;;;;8.05;74.16;96870.84;5134750;27;20226;-79
2024/03/17 07:03:27;;;;;;;13.53;10.67;;;;;;;7.85;74.85;96873.41;5134396;27;20190;-77
2024/03/17 07:05:55;;;;;;;13.67;10.37;;;;;;;7.71;74.58;96845.84;5134741;27;20194;-80
2024/03/17 07:08:22;;;;;;;16.10;10.47;;;;;;;8.12;73.50;96878.50;5134430;27;20232;-80
2024/03/17 07:10:59;;;;;;;12.10;10.07;;;;;;;8.22;73.25;96877.75;5134625;27;20209;-81
2024/03/17 07:13:26;;;;;;;13.67;9.17;;;;;;;8.34;72.47;96865.03;5134197;27;20206;-81
2024/03/17 07:15:55;;;;;;;11.13;9.73;;;;;;;8.44;72.66;96881.00;5116024;27;20685;-78
2024/03/17 07:18:22;;;;;;;11.37;10.13;;;;;;;8.30;72.95;96874.56;5116089;27;20206;-81
2024/03/17 07:20:48;;;;;;;12.53;11.20;;;;;;;8.61;72.45;96882.56;5134199;27;20195;-81
2024/03/17 07:23:16;;;;;;;12.10;9.13;;;;;;;8.40;71.22;96874.63;5133981;27;20615;-81
2024/03/17 07:25:43;;;;;;;12.07;9.27;;;;;;;8.48;72.00;96878.56;5133799;27;20220;-81
2024/03/17 07:28:10;;;;;;;15.13;9.50;;;;;;;8.90;70.94;96874.84;5133832;27;20681;-81
2024/03/17 07:30:37;;;;;;;12.93;9.40;;;;;;;9.09;70.29;96867.91;5133765;27;20759;-82
2024/03/17 07:33:05;;;;;;;10.63;9.40;;;;;;;9.08;69.76;96868.97;5133959;27;20271;-81
2024/03/17 07:35:33;;;;;;;13.37;10.37;;;;;;;9.15;70.67;96874.03;5133900;27;20195;-81
2024/03/17 07:38:00;;;;;;;13.30;10.27;;;;;;;8.99;70.89;96868.75;5133839;27;20194;-82
2024/03/17 07:40:26;;;;;;;12.63;10.53;;;;;;;9.35;70.50;96873.94;5133684;27;20195;-81
2024/03/17 07:42:54;;;;;;;13.40;9.23;;;;;;;9.35;69.33;96873.94;5133389;27;20190;-84
2024/03/17 07:45:21;;;;;;;12.50;9.93;;;;;;;9.32;70.29;96880.59;5133579;27;20258;-79
2024/03/17 07:47:47;;;;;;;14.40;9.80;;;;;;;9.07;70.53;96880.66;5133321;27;20205;-81
2024/03/17 07:50:16;;;;;;;9.97;7.53;;;;;;;9.21;69.81;96878.22;5133497;27;20194;-81
2024/03/17 07:52:42;;;;;;;9.30;8.30;;;;;;;9.13;69.78;96876.91;5134166;27;20222;-84
2024/03/17 07:55:09;;;;;;;11.57;8.37;;;;;;;9.65;68.53;96875.72;5133250;27;20327;-79
2024/03/17 07:57:36;;;;;;;9.53;8.10;;;;;;;10.02;66.15;96869.91;5133157;27;20195;-79
2024/03/17 08:00:04;;;;;;;9.40;7.47;;;;;;;10.37;64.67;96870.78;5133629;27;20283;-79
2024/03/17 08:02:30;;;;;;;9.50;8.00;;;;;;;11.24;63.56;96865.50;5133810;27;20607;-79
2024/03/17 08:04:57;;;;;;;9.63;8.00;;;;;;;10.74;63.74;96866.78;5133177;27;20672;-78
2024/03/17 08:07:25;;;;;;;13.57;9.33;;;;;;;10.92;64.81;96863.44;5131450;27;20243;-79
2024/03/17 08:09:52;;;;;;;11.07;8.53;;;;;;;11.73;61.51;96866.25;5132015;27;20266;-79
2024/03/17 08:12:19;;;;;;;15.87;14.17;;;;;;;11.92;59.79;96853.75;5132488;27;20217;-79
2024/03/17 08:14:46;;;;;;;12.13;8.33;;;;;;;11.71;60.92;96860.41;5133351;27;20608;-79
2024/03/17 08:17:13;;;;;;;11.30;9.20;;;;;;;12.37;58.12;96859.53;5125542;27;20188;-79
2024/03/17 08:19:41;;;;;;;11.40;9.00;;;;;;;12.30;58.98;96853.75;5121338;27;20691;-79
2024/03/17 08:22:08;;;;;;;11.20;8.30;;;;;;;12.15;58.68;96852.09;5132011;27;20195;-79
2024/03/17 08:24:36;;;;;;;11.37;8.33;;;;;;;12.44;57.32;96817.25;5132592;27;20209;-79
2024/03/17 08:27:02;;;;;;;10.90;8.73;;;;;;;12.17;58.38;96849.16;5131560;27;20183;-79
2024/03/17 08:29:29;;;;;;;10.57;8.40;;;;;;;11.68;59.55;96834.31;5132006;27;20194;-79
2024/03/17 08:31:56;;;;;;;15.90;11.17;;;;;;;12.24;59.19;96830.91;5131633;27;20229;-79
2024/03/17 08:34:23;;;;;;;11.13;10.03;;;;;;;12.77;56.43;96835.13;5131978;27;20195;-79
2024/03/17 08:36:49;;;;;;;9.07;8.03;;;;;;;12.44;57.47;96841.25;5132323;27;20650;-79
2024/03/17 08:39:16;;;;;;;11.13;10.00;;;;;;;12.79;55.65;96847.09;5131934;27;20255;-79
2024/03/17 08:41:45;;;;;;;11.00;9.90;;;;;;;13.10;55.06;96838.56;5131958;27;20205;-79
2024/03/17 08:44:12;;;;;;;9.27;8.30;;;;;;;12.45;57.21;96842.06;5132306;27;20194;-79
2024/03/17 08:46:39;;;;;;;10.20;8.60;;;;;;;12.54;55.94;96836.84;5132471;28;20442;-79
2024/03/17 08:49:06;;;;;;;12.53;9.90;;;;;;;13.51;52.78;96822.53;5130892;28;20198;-79
2024/03/17 08:51:33;;;;;;;12.20;8.53;;;;;;;13.38;54.04;96829.47;5132279;28;20241;-79
2024/03/17 08:53:59;;;;;;;9.87;8.27;;;;;;;12.80;55.07;96848.69;5131344;28;20202;-79
2024/03/17 08:56:26;;;;;;;8.87;7.90;;;;;;;13.58;52.78;96833.59;5131621;28;20206;-79
2024/03/17 08:58:55;;;;;;;8.10;6.73;;;;;;;13.90;49.67;96816.63;5131495;28;20286;-79
2024/03/17 09:01:21;;;;;;;8.27;7.13;;;;;;;14.39;50.21;96828.34;5132218;28;20225;-79
2024/03/17 09:03:49;;;;;;;9.40;7.80;;;;;;;14.46;48.28;96813.75;5132879;28;20198;-79
2024/03/17 09:06:18;;;;;;;9.63;7.03;;;;;;;14.58;47.31;96840.78;5117605;28;20187;-79
2024/03/17 09:08:45;;;;;;;7.90;7.10;;;;;;;14.61;46.79;96818.75;5112854;28;20225;-79
2024/03/17 09:11:14;;;;;;;8.70;6.00;;;;;;;15.16;45.81;96818.41;5122806;27;20199;-80
2024/03/17 09:13:41;;;;;;;7.20;6.50;;;;;;;14.90;45.74;96819.06;5135933;27;20218;-79
2024/03/17 09:16:13;;;;;;;8.83;6.93;;;;;;;14.92;47.16;96808.84;5136456;27;20194;-79
2024/03/17 09:18:40;;;;;;;7.60;6.37;;;;;;;14.99;45.88;96811.09;5125114;27;20198;-79
2024/03/17 09:21:10;;;;;;;8.20;7.07;;;;;;;14.57;48.02;96807.88;5115833;28;20195;-79
2024/03/17 09:23:38;;;;;;;6.53;5.73;;;;;;;13.80;47.80;96806.13;5115927;28;20622;-79
2024/03/17 09:26:08;;;;;;;8.27;7.47;;;;;;;14.15;47.97;96799.19;5116080;28;20275;-78
2024/03/17 09:28:35;;;;;;;10.03;7.87;;;;;;;13.16;53.03;96803.41;5114936;27;20621;-81
2024/03/17 09:31:05;;;;;;;10.07;8.80;;;;;;;12.32;56.68;96787.53;5135279;27;20198;-81
2024/03/17 09:33:34;;;;;;;10.80;8.97;;;;;;;12.32;57.58;96808.09;5136082;27;20219;-81
2024/03/17 09:36:03;;;;;;;10.83;8.93;;;;;;;12.08;58.32;96800.19;5131207;27;20687;-81
2024/03/17 09:38:30;;;;;;;9.17;8.07;;;;;;;12.26;56.76;96799.38;5135104;27;20195;-81
2024/03/17 09:41:00;;;;;;;10.13;8.17;;;;;;;11.93;58.92;96780.69;5135058;27;20203;-83
2024/03/17 09:43:27;;;;;;;12.87;10.27;;;;;;;11.95;58.99;96797.16;5136743;27;20199;-82
2024/03/17 09:45:57;;;;;;;15.33;9.13;;;;;;;11.47;60.19;96797.28;5134903;27;20204;-82
2024/03/17 09:48:24;;;;;;;17.07;9.87;;;;;;;11.64;61.24;96796.78;5136723;27;20198;-82
2024/03/17 09:50:56;;;;;;;14.60;10.73;;;;;;;11.39;61.78;96781.13;5136415;27;20198;-88
2024/03/17 09:53:26;;;;;;;12.00;10.70;;;;;;;11.66;62.22;96793.84;5136318;27;20219;-83
2024/03/17 09:55:54;;;;;;;13.83;10.07;;;;;;;11.64;61.98;96790.66;5095107;28;20626;-80
2024/03/17 09:58:21;;;;;;;11.47;10.37;;;;;;;11.59;62.46;96788.06;5094713;28;20231;-81
2024/03/17 10:00:48;;;;;;;13.57;11.23;;;;;;;11.42;63.43;96791.19;5094888;28;20227;-81
2024/03/17 10:03:45;;;;;;;10.90;9.17;;;;;;;11.40;62.11;96783.50;5094563;28;20200;-81
2024/03/17 10:06:13;;;;;;;10.87;9.77;;;;;;;11.40;62.40;96780.84;5095335;28;20221;-82
2024/03/17 10:08:44;;;;;;;11.40;9.23;;;;;;;11.66;61.46;96791.16;5095019;28;20251;-81
2024/03/17 10:11:13;;;;;;;11.87;9.60;;;;;;;12.02;60.38;96799.47;5094902;28;20261;-82
2024/03/17 10:13:40;;;;;;;12.13;9.80;;;;;;;12.17;60.36;96795.78;5094565;28;20219;-82
2024/03/17 10:16:21;;;;;;;13.97;10.37;;;;;;;13.04;58.18;96787.06;5094582;28;20605;-81
2024/03/17 10:18:49;;;;;;;10.63;9.53;;;;;;;13.29;56.06;96785.03;5094308;28;20207;-82
2024/03/17 10:21:27;;;;;;;10.03;8.73;;;;;;;13.28;54.95;96781.56;5094122;28;20192;-81
2024/03/17 10:24:07;;;;;;;9.63;8.63;;;;;;;12.37;58.57;96776.78;5104466;27;20668;-82
2024/03/17 10:26:37;;;;;;;9.97;8.33;;;;;;;12.07;58.96;96778.06;5135426;27;20226;-81
2024/03/17 10:29:05;;;;;;;10.80;9.50;;;;;;;11.82;60.80;96765.09;5127817;27;20204;-82
2024/03/17 10:31:32;;;;;;;10.60;9.37;;;;;;;11.91;59.56;96784.69;5113767;28;20682;-82
2024/03/17 10:34:03;;;;;;;10.87;8.83;;;;;;;11.96;59.71;96781.94;5132685;27;20269;-82
2024/03/17 10:36:30;;;;;;;9.77;8.50;;;;;;;11.73;60.05;96786.25;5119950;27;20187;-81
2024/03/17 10:38:57;;;;;;;10.27;9.20;;;;;;;11.58;60.90;96770.50;5134763;27;20187;-81
2024/03/17 10:41:28;;;;;;;11.40;8.93;;;;;;;11.62;60.80;96776.84;5134796;27;20622;-81
2024/03/17 10:43:56;;;;;;;11.23;9.10;;;;;;;11.69;60.94;96791.41;5135350;27;20201;-82
2024/03/17 10:46:25;;;;;;;12.33;8.57;;;;;;;11.64;61.08;96780.00;5133927;27;20611;-82
2024/03/17 10:48:54;;;;;;;14.33;8.63;;;;;;;11.50;61.97;96788.72;5134744;27;20212;-82
2024/03/17 10:51:24;;;;;;;13.17;9.67;;;;;;;11.23;62.32;96786.66;5114146;27;20249;-82
2024/03/17 10:53:54;;;;;;;11.07;9.10;;;;;;;11.22;62.07;96781.59;5116788;27;20223;-82
2024/03/17 10:56:21;;;;;;;11.43;8.93;;;;;;;11.45;61.13;96774.63;5135048;27;20230;-82
2024/03/17 10:58:52;;;;;;;10.27;9.17;;;;;;;11.38;61.11;96777.66;5134328;27;20259;-82
2024/03/17 11:01:21;;;;;;;12.53;9.37;;;;;;;11.50;61.54;96774.59;5134946;27;20219;-82
2024/03/17 11:03:50;;;;;;;10.13;9.07;;;;;;;11.55;59.35;96715.88;5134355;27;20244;-82
2024/03/17 11:06:18;;;;;;;9.07;8.17;;;;;;;12.83;56.77;96757.28;5134338;27;20650;-82
2024/03/17 11:08:46;;;;;;;10.03;9.03;;;;;;;12.31;57.63;96697.06;5134196;27;20202;-82
2024/03/17 11:11:14;;;;;;;12.13;8.93;;;;;;;12.64;57.60;96767.25;5133007;27;20199;-82
2024/03/17 11:13:41;;;;;;;10.90;8.73;;;;;;;13.05;55.75;96767.28;5134134;27;20225;-82
2024/03/17 11:16:29;;;;;;;8.93;8.03;;;;;;;13.47;55.48;96754.69;5133293;27;20198;-82
2024/03/17 11:19:06;;;;;;;11.90;7.60;;;;;;;14.19;52.01;96754.66;5134221;27;20262;-81
2024/03/17 11:21:34;;;;;;;8.40;7.27;;;;;;;14.70;50.51;96757.19;5133915;27;20198;-82
2024/03/17 11:24:03;;;;;;;8.67;7.43;;;;;;;14.57;48.78;96732.84;5134356;27;20252;-82
2024/03/17 11:26:32;;;;;;;8.57;7.67;;;;;;;14.37;50.53;96742.19;5133951;27;20293;-82
2024/03/17 11:29:00;;;;;;;8.13;7.33;;;;;;;13.89;50.69;96750.81;5134034;27;20191;-82
2024/03/17 11:31:44;;;;;;;7.97;7.17;;;;;;;13.51;53.17;96741.50;5133683;27;20251;-82
2024/03/17 11:34:30;;;;;;;8.50;7.60;;;;;;;13.37;53.29;96739.66;5133633;27;20321;-82